createdAt,value
2022-10-11T00:00:54.668Z,9.93
2022-10-11T00:01:57.301Z,10.65
2022-10-11T00:03:00.966Z,12.30
2022-10-11T00:04:03.651Z,10.80
2022-10-11T00:05:06.884Z,13.27
2022-10-11T00:06:09.702Z,11.40
2022-10-11T00:07:12.445Z,11.98
2022-10-11T00:08:16.291Z,12.68
2022-10-11T00:09:19.002Z,11.05
2022-10-11T00:10:22.343Z,13.98
2022-10-11T00:11:25.220Z,12.57
2022-10-11T00:12:27.999Z,11.73
2022-10-11T00:13:30.990Z,10.57
2022-10-11T00:14:34.255Z,13.27
2022-10-11T00:15:40.581Z,11.75
2022-10-11T00:16:44.789Z,10.18
2022-10-11T00:17:47.844Z,13.13
2022-10-11T00:18:51.003Z,11.15
2022-10-11T00:19:53.804Z,11.60
2022-10-11T00:21:08.606Z,10.50
2022-10-11T00:22:11.311Z,12.43
2022-10-11T00:23:18.377Z,15.10
2022-10-11T00:24:21.240Z,11.85
2022-10-11T00:25:23.935Z,14.18
2022-10-11T00:26:26.603Z,16.70
2022-10-11T00:27:29.380Z,15.18
2022-10-11T00:28:36.411Z,11.20
2022-10-11T00:29:39.139Z,21.60
2022-10-11T00:30:43.902Z,12.27
2022-10-11T00:31:47.017Z,13.30
2022-10-11T00:32:50.665Z,12.35
2022-10-11T00:33:58.432Z,13.35
2022-10-11T00:35:04.996Z,16.85
2022-10-11T00:36:09.273Z,16.42
2022-10-11T00:37:12.221Z,17.73
2022-10-11T00:38:15.287Z,14.05
2022-10-11T00:39:18.473Z,12.63
2022-10-11T00:40:21.429Z,13.48
2022-10-11T00:41:24.274Z,15.15
2022-10-11T00:42:27.585Z,15.65
2022-10-11T00:43:32.310Z,13.35
2022-10-11T00:44:38.412Z,12.98
2022-10-11T00:45:40.978Z,11.70
2022-10-11T00:46:56.129Z,13.98
2022-10-11T00:48:24.294Z,13.75
2022-10-11T00:49:37.488Z,12.07
2022-10-11T00:50:40.425Z,17.83
2022-10-11T00:51:51.822Z,11.68
2022-10-11T00:53:00.332Z,11.10
2022-10-11T00:54:04.229Z,12.55
2022-10-11T00:55:14.627Z,12.07
2022-10-11T00:56:22.981Z,11.70
2022-10-11T00:57:29.857Z,12.25
2022-10-11T00:58:35.224Z,12.25
2022-10-11T00:59:42.782Z,12.27
2022-10-11T01:00:45.790Z,10.50
2022-10-11T01:01:49.392Z,13.90
2022-10-11T01:02:52.253Z,17.05
2022-10-11T01:03:56.056Z,9.05
2022-10-11T01:05:25.063Z,9.80
2022-10-11T01:06:21.991Z,10.63
2022-10-11T01:07:28.200Z,11.30
2022-10-11T01:08:31.868Z,10.65
2022-10-11T01:09:35.015Z,9.60
2022-10-11T01:10:37.834Z,12.15
2022-10-11T01:11:44.306Z,10.55
2022-10-11T01:13:10.134Z,15.07
2022-10-11T01:14:41.974Z,9.80
2022-10-11T01:15:56.960Z,9.60
2022-10-11T01:17:07.156Z,8.48
2022-10-11T01:18:27.183Z,8.80
2022-10-11T01:20:16.309Z,9.98
2022-10-11T01:21:32.761Z,12.95
2022-10-11T01:22:53.386Z,11.27
2022-10-11T01:24:28.248Z,8.00
2022-10-11T01:25:39.553Z,10.35
2022-10-11T01:27:25.765Z,9.70
2022-10-11T01:28:44.688Z,7.90
2022-10-11T01:30:03.838Z,10.02
2022-10-11T01:31:21.662Z,7.55
2022-10-11T01:32:31.922Z,7.30
2022-10-11T01:33:53.726Z,9.63
2022-10-11T01:35:10.502Z,10.57
2022-10-11T01:36:29.692Z,8.07
2022-10-11T01:37:35.334Z,11.70
2022-10-11T01:39:12.309Z,10.88
2022-10-11T01:40:24.057Z,10.55
2022-10-11T01:42:39.280Z,11.65
2022-10-11T01:43:43.074Z,12.93
2022-10-11T01:44:48.477Z,8.20
2022-10-11T01:45:55.679Z,10.00
2022-10-11T01:46:58.465Z,10.07
2022-10-11T01:48:03.114Z,11.88
2022-10-11T01:49:06.059Z,9.50
2022-10-11T01:50:33.592Z,8.45
2022-10-11T01:51:58.543Z,11.30
2022-10-11T01:53:26.092Z,8.75
2022-10-11T01:55:08.561Z,10.45
2022-10-11T01:56:24.153Z,10.55
2022-10-11T01:57:45.666Z,8.50
2022-10-11T01:59:13.522Z,10.02
2022-10-11T02:00:21.170Z,9.38
2022-10-11T02:02:00.615Z,10.45
2022-10-11T02:03:29.530Z,12.50
2022-10-11T02:04:47.598Z,8.80
2022-10-11T02:05:56.053Z,14.38
2022-10-11T02:07:24.712Z,13.48
2022-10-11T02:08:34.436Z,9.38
2022-10-11T02:09:42.214Z,11.63
2022-10-11T02:11:01.247Z,8.75
2022-10-11T02:12:10.374Z,9.77
2022-10-11T02:13:34.334Z,7.10
2022-10-11T02:14:42.298Z,7.65
2022-10-11T02:15:48.961Z,11.32
2022-10-11T02:16:57.724Z,7.68
2022-10-11T02:18:06.688Z,12.18
2022-10-11T02:19:12.625Z,10.80
2022-10-11T02:20:21.091Z,11.75
2022-10-11T02:21:24.878Z,16.10
2022-10-11T02:22:41.203Z,13.35
2022-10-11T02:23:56.629Z,10.60
2022-10-11T02:25:03.148Z,14.38
2022-10-11T02:26:07.413Z,11.40
2022-10-11T02:27:12.823Z,14.73
2022-10-11T02:28:21.400Z,9.10
2022-10-11T02:29:29.309Z,10.45
2022-10-11T02:30:33.280Z,9.95
2022-10-11T02:31:41.339Z,11.60
2022-10-11T02:32:46.595Z,13.32
2022-10-11T02:33:58.286Z,11.40
2022-10-11T02:35:02.734Z,11.10
2022-10-11T02:36:25.392Z,9.90
2022-10-11T02:37:32.417Z,9.90
2022-10-11T02:38:41.649Z,11.35
2022-10-11T02:39:56.551Z,9.30
2022-10-11T02:41:11.182Z,10.20
2022-10-11T02:42:20.059Z,8.15
2022-10-11T02:43:33.855Z,9.48
2022-10-11T02:44:43.060Z,12.48
2022-10-11T02:45:51.416Z,16.40
2022-10-11T02:46:54.979Z,9.38
2022-10-11T02:47:58.489Z,12.00
2022-10-11T02:49:02.487Z,10.10
2022-10-11T02:50:05.738Z,10.13
2022-10-11T02:51:17.322Z,13.07
2022-10-11T02:52:20.529Z,9.63
2022-10-11T02:53:24.595Z,7.90
2022-10-11T02:54:27.836Z,8.50
2022-10-11T02:55:31.240Z,9.55
2022-10-11T02:56:34.013Z,9.52
2022-10-11T02:57:36.647Z,7.72
2022-10-11T02:58:40.259Z,13.75
2022-10-11T02:59:42.895Z,6.72
2022-10-11T03:00:45.757Z,6.72
2022-10-11T03:01:48.547Z,10.50
2022-10-11T03:02:51.320Z,10.63
2022-10-11T03:03:54.020Z,7.72
2022-10-11T03:04:56.685Z,10.98
2022-10-11T03:06:02.161Z,8.93
2022-10-11T03:07:05.064Z,8.52
2022-10-11T03:08:10.175Z,8.65
2022-10-11T03:09:12.843Z,10.27
2022-10-11T03:10:15.499Z,9.65
2022-10-11T03:11:18.297Z,9.00
2022-10-11T03:12:21.091Z,10.43
2022-10-11T03:13:24.018Z,17.85
2022-10-11T03:14:26.904Z,9.15
2022-10-11T03:15:29.824Z,8.10
2022-10-11T03:16:32.442Z,8.13
2022-10-11T03:17:36.979Z,12.25
2022-10-11T03:18:40.123Z,7.15
2022-10-11T03:19:42.756Z,10.25
2022-10-11T03:20:45.422Z,10.25
2022-10-11T03:21:48.069Z,8.95
2022-10-11T03:22:50.818Z,13.27
2022-10-11T03:23:53.514Z,11.20
2022-10-11T03:25:00.977Z,13.68
2022-10-11T03:26:06.653Z,11.82
2022-10-11T03:27:09.565Z,11.05
2022-10-11T03:28:12.276Z,15.10
2022-10-11T03:29:14.956Z,9.15
2022-10-11T03:30:18.463Z,10.63
2022-10-11T03:31:22.259Z,11.15
2022-10-11T03:32:25.378Z,11.05
2022-10-11T03:33:28.054Z,14.32
2022-10-11T03:34:30.706Z,12.63
2022-10-11T03:35:35.338Z,19.35
2022-10-11T03:36:37.904Z,9.68
2022-10-11T03:37:40.623Z,13.00
2022-10-11T03:38:43.232Z,12.65
2022-10-11T03:39:46.152Z,12.73
2022-10-11T03:41:56.598Z,18.50
2022-10-11T03:42:59.286Z,18.92
2022-10-11T03:44:01.950Z,22.58
2022-10-11T03:45:08.381Z,30.88
2022-10-11T03:46:11.085Z,20.83
2022-10-11T03:47:13.700Z,24.23
2022-10-11T03:48:16.384Z,13.13
2022-10-11T03:49:19.057Z,12.57
2022-10-11T03:50:25.449Z,12.02
2022-10-11T03:51:28.149Z,10.73
2022-10-11T03:52:30.796Z,14.10
2022-10-11T03:53:33.389Z,13.40
2022-10-11T03:54:36.038Z,10.32
2022-10-11T03:55:40.483Z,13.07
2022-10-11T03:56:43.370Z,11.73
2022-10-11T03:57:46.028Z,10.77
2022-10-11T03:58:49.051Z,10.20
2022-10-11T03:59:51.736Z,13.73
2022-10-11T04:00:54.544Z,10.23
2022-10-11T04:01:57.304Z,11.75
2022-10-11T04:03:00.433Z,13.32
2022-10-11T04:04:03.392Z,10.70
2022-10-11T04:05:06.820Z,14.52
2022-10-11T04:06:09.554Z,14.30
2022-10-11T04:07:12.167Z,16.10
2022-10-11T04:08:15.029Z,14.18
2022-10-11T04:10:25.764Z,12.52
2022-10-11T04:11:28.430Z,12.20
2022-10-11T04:12:31.115Z,11.98
2022-10-11T04:13:33.764Z,14.80
2022-10-11T04:14:36.343Z,13.68
2022-10-11T04:15:39.529Z,13.70
2022-10-11T04:16:42.584Z,14.10
2022-10-11T04:17:45.407Z,14.77
2022-10-11T04:18:48.268Z,12.48
2022-10-11T04:19:50.855Z,12.35
2022-10-11T04:20:53.591Z,18.33
2022-10-11T04:21:56.361Z,14.70
2022-10-11T04:22:59.209Z,12.93
2022-10-11T04:24:01.843Z,10.98
2022-10-11T04:25:05.954Z,11.93
2022-10-11T04:26:08.937Z,14.40
2022-10-11T04:27:11.849Z,12.27
2022-10-11T04:28:14.851Z,16.73
2022-10-11T04:29:17.684Z,13.75
2022-10-11T04:30:24.890Z,12.07
2022-10-11T04:31:27.569Z,12.23
2022-10-11T04:32:30.261Z,11.15
2022-10-11T04:33:32.881Z,13.88
2022-10-11T04:34:35.916Z,9.68
2022-10-11T04:35:38.831Z,9.75
2022-10-11T04:36:42.913Z,11.18
2022-10-11T04:37:48.013Z,11.20
2022-10-11T04:38:50.683Z,9.88
2022-10-11T04:39:53.243Z,11.75
2022-10-11T04:40:56.083Z,15.35
2022-10-11T04:41:58.996Z,9.98
2022-10-11T04:43:02.003Z,12.77
2022-10-11T04:44:04.978Z,13.73
2022-10-11T04:45:09.124Z,16.00
2022-10-11T04:46:12.040Z,12.65
2022-10-11T04:47:14.862Z,11.07
2022-10-11T04:48:18.239Z,11.30
2022-10-11T04:49:20.871Z,13.43
2022-10-11T04:50:23.487Z,12.75
2022-10-11T04:51:26.611Z,10.70
2022-10-11T04:52:29.603Z,11.43
2022-10-11T04:53:32.329Z,8.88
2022-10-11T04:54:36.321Z,21.77
2022-10-11T04:55:38.948Z,14.68
2022-10-11T04:56:41.590Z,13.25
2022-10-11T04:57:44.172Z,15.05
2022-10-11T04:58:52.067Z,14.02
2022-10-11T04:59:54.804Z,15.45
2022-10-11T05:00:57.967Z,17.75
2022-10-11T05:02:00.635Z,16.20
2022-10-11T05:03:03.262Z,18.70
2022-10-11T05:04:05.883Z,15.00
2022-10-11T05:05:08.964Z,17.10
2022-10-11T05:06:12.115Z,12.20
2022-10-11T05:07:15.143Z,13.88
2022-10-11T05:08:17.885Z,14.32
2022-10-11T05:09:21.936Z,15.93
2022-10-11T05:10:24.575Z,16.02
2022-10-11T05:11:27.191Z,14.87
2022-10-11T05:12:33.358Z,13.65
2022-10-11T05:13:36.505Z,14.73
2022-10-11T05:14:39.112Z,13.15
2022-10-11T05:15:41.672Z,14.55
2022-10-11T05:16:44.417Z,17.12
2022-10-11T05:17:47.175Z,17.00
2022-10-11T05:18:50.018Z,16.75
2022-10-11T05:19:53.067Z,15.52
2022-10-11T05:21:23.138Z,16.73
2022-10-11T05:22:25.674Z,16.85
2022-10-11T05:23:30.363Z,15.05
2022-10-11T05:24:32.989Z,14.02
2022-10-11T05:25:35.580Z,13.73
2022-10-11T05:26:39.433Z,15.05
2022-10-11T05:27:42.120Z,16.50
2022-10-11T05:28:44.917Z,15.38
2022-10-11T05:29:47.668Z,14.30
2022-10-11T05:30:51.450Z,19.33
2022-10-11T05:31:54.027Z,14.52
2022-10-11T05:32:56.532Z,15.93
2022-10-11T05:34:00.129Z,14.02
2022-10-11T05:35:02.862Z,18.73
2022-10-11T05:36:07.521Z,12.07
2022-10-11T05:37:10.548Z,12.85
2022-10-11T05:38:13.492Z,14.25
2022-10-11T05:39:16.175Z,14.57
2022-10-11T05:40:18.830Z,15.02
2022-10-11T05:41:21.390Z,11.45
2022-10-11T05:42:23.958Z,12.52
2022-10-11T05:43:27.308Z,12.37
2022-10-11T05:44:29.945Z,16.20
2022-10-11T05:45:35.734Z,10.57
2022-10-11T05:46:38.932Z,11.63
2022-10-11T05:47:41.629Z,14.23
2022-10-11T05:48:44.233Z,13.90
2022-10-11T05:49:46.817Z,10.15
2022-10-11T05:50:49.382Z,12.68
2022-10-11T05:51:51.937Z,18.52
2022-10-11T05:52:54.730Z,16.33
2022-10-11T05:53:57.482Z,16.23
2022-10-11T05:54:59.976Z,27.02
2022-10-11T05:56:02.945Z,17.25
2022-10-11T05:57:05.784Z,15.82
2022-10-11T05:58:13.228Z,12.90
2022-10-11T05:59:15.759Z,13.43
2022-10-11T06:00:18.511Z,17.95
2022-10-11T06:01:25.895Z,15.45
2022-10-11T06:02:30.523Z,13.80
2022-10-11T06:03:33.308Z,18.48
2022-10-11T06:04:39.540Z,13.38
2022-10-11T06:05:42.228Z,17.77
2022-10-11T06:06:45.397Z,18.52
2022-10-11T06:07:47.992Z,23.20
2022-10-11T06:08:50.690Z,17.35
2022-10-11T06:09:53.288Z,16.50
2022-10-11T06:10:55.922Z,16.52
2022-10-11T06:11:58.418Z,14.90
2022-10-11T06:13:07.369Z,14.00
2022-10-11T06:14:10.069Z,15.00
2022-10-11T06:15:12.783Z,18.95
2022-10-11T06:16:16.347Z,20.17
2022-10-11T06:17:19.309Z,20.30
2022-10-11T06:18:22.249Z,23.52
2022-10-11T06:19:25.097Z,21.87
2022-10-11T06:20:28.117Z,18.77
2022-10-11T06:21:31.020Z,20.45
2022-10-11T06:22:33.661Z,15.98
2022-10-11T06:23:36.429Z,19.80
2022-10-11T06:24:39.028Z,22.50
2022-10-11T06:25:41.774Z,16.52
2022-10-11T06:26:44.475Z,20.45
2022-10-11T06:27:47.194Z,19.42
2022-10-11T06:28:49.883Z,29.63
2022-10-11T06:29:52.657Z,28.30
2022-10-11T06:30:56.472Z,22.73
2022-10-11T06:31:59.326Z,21.90
2022-10-11T06:33:04.821Z,26.02
2022-10-11T06:34:07.944Z,23.48
2022-10-11T06:35:10.625Z,20.30
2022-10-11T06:36:14.914Z,25.80
2022-10-11T06:37:17.586Z,24.20
2022-10-11T06:38:21.004Z,24.50
2022-10-11T06:39:23.693Z,22.67
2022-10-11T06:40:26.535Z,19.48
2022-10-11T06:41:30.599Z,21.65
2022-10-11T06:42:33.235Z,17.42
2022-10-11T06:43:36.102Z,19.65
2022-10-11T06:44:39.516Z,19.45
2022-10-11T06:45:42.322Z,17.37
2022-10-11T06:47:52.572Z,13.25
2022-10-11T06:48:56.682Z,14.82
2022-10-11T06:49:59.388Z,11.02
2022-10-11T06:51:02.162Z,14.65
2022-10-11T06:52:05.254Z,13.85
2022-10-11T06:53:08.217Z,17.42
2022-10-11T06:54:10.911Z,10.70
2022-10-11T06:55:13.873Z,14.50
2022-10-11T06:56:16.542Z,14.10
2022-10-11T06:57:19.405Z,22.80
2022-10-11T06:58:22.112Z,23.67
2022-10-11T06:59:25.012Z,15.10
2022-10-11T07:00:27.685Z,16.40
2022-10-11T07:01:30.602Z,16.17
2022-10-11T07:02:33.493Z,17.10
2022-10-11T07:03:36.360Z,21.98
2022-10-11T07:04:39.584Z,15.32
2022-10-11T07:05:42.144Z,15.32
2022-10-11T07:06:44.871Z,12.60
2022-10-11T07:07:47.647Z,16.20
2022-10-11T07:08:50.500Z,15.75
2022-10-11T07:09:53.579Z,15.77
2022-10-11T07:11:01.558Z,17.05
2022-10-11T07:12:04.336Z,16.55
2022-10-11T07:13:07.134Z,10.93
2022-10-11T07:14:10.637Z,15.18
2022-10-11T07:15:13.504Z,13.82
2022-10-11T07:16:16.222Z,10.18
2022-10-11T07:17:18.847Z,13.45
2022-10-11T07:18:21.675Z,14.05
2022-10-11T07:19:24.583Z,15.50
2022-10-11T07:20:27.200Z,9.32
2022-10-11T07:21:31.994Z,19.42
2022-10-11T07:22:34.655Z,9.48
2022-10-11T07:23:37.732Z,10.63
2022-10-11T07:24:40.742Z,11.38
2022-10-11T07:25:44.523Z,14.60
2022-10-11T07:26:47.264Z,10.00
2022-10-11T07:27:50.289Z,11.18
2022-10-11T07:28:53.011Z,15.00
2022-10-11T07:29:55.888Z,12.45
2022-10-11T07:30:59.364Z,12.25
2022-10-11T07:32:02.012Z,13.95
2022-10-11T07:33:05.139Z,14.05
2022-10-11T07:34:08.611Z,9.07
2022-10-11T07:35:11.424Z,13.50
2022-10-11T07:36:15.948Z,12.32
2022-10-11T07:37:18.849Z,8.43
2022-10-11T07:38:21.820Z,12.27
2022-10-11T07:39:24.936Z,9.05
2022-10-11T07:40:27.885Z,11.73
2022-10-11T07:41:30.544Z,13.27
2022-10-11T07:42:33.850Z,11.23
2022-10-11T07:43:37.540Z,9.95
2022-10-11T07:44:40.564Z,12.48
2022-10-11T07:45:47.867Z,12.43
2022-10-11T07:46:50.554Z,9.82
2022-10-11T07:47:56.395Z,10.35
2022-10-11T07:48:59.542Z,8.40
2022-10-11T07:50:02.239Z,11.77
2022-10-11T07:51:10.963Z,14.82
2022-10-11T07:52:13.618Z,13.40
2022-10-11T07:53:16.231Z,11.82
2022-10-11T07:54:18.850Z,11.95
2022-10-11T07:55:21.432Z,8.23
2022-10-11T07:56:27.113Z,8.45
2022-10-11T07:57:29.840Z,10.20
2022-10-11T07:58:33.241Z,11.60
2022-10-11T07:59:36.119Z,11.50
2022-10-11T08:01:42.661Z,9.82
2022-10-11T08:02:45.323Z,11.05
2022-10-11T08:03:49.169Z,15.20
2022-10-11T08:04:51.799Z,8.90
2022-10-11T08:05:54.442Z,11.32
2022-10-11T08:06:57.049Z,10.80
2022-10-11T08:07:59.992Z,9.30
2022-10-11T08:09:02.931Z,10.18
2022-10-11T08:10:06.932Z,15.38
2022-10-11T08:11:10.663Z,18.48
2022-10-11T08:12:13.382Z,11.63
2022-10-11T08:13:16.120Z,11.93
2022-10-11T08:14:19.190Z,14.43
2022-10-11T08:15:22.104Z,11.63
2022-10-11T08:16:25.307Z,10.23
2022-10-11T08:17:29.888Z,19.92
2022-10-11T08:18:33.288Z,11.43
2022-10-11T08:19:35.864Z,16.30
2022-10-11T08:20:39.771Z,15.60
2022-10-11T08:21:42.361Z,12.73
2022-10-11T08:22:44.946Z,15.05
2022-10-11T08:23:47.622Z,11.88
2022-10-11T08:24:50.263Z,14.40
2022-10-11T08:25:57.386Z,15.27
2022-10-11T08:27:00.035Z,16.80
2022-10-11T08:28:02.631Z,18.45
2022-10-11T08:29:05.439Z,11.75
2022-10-11T08:30:08.867Z,12.82
2022-10-11T08:31:16.170Z,16.67
2022-10-11T08:32:18.877Z,13.07
2022-10-11T08:33:25.449Z,14.18
2022-10-11T08:34:28.007Z,13.48
2022-10-11T08:35:30.706Z,13.10
2022-10-11T08:36:33.641Z,15.38
2022-10-11T08:37:36.272Z,12.48
2022-10-11T08:38:39.844Z,13.50
2022-10-11T08:39:42.608Z,10.25
2022-10-11T08:40:55.119Z,13.32
2022-10-11T08:42:03.303Z,13.43
2022-10-11T08:43:13.720Z,14.75
2022-10-11T08:45:10.147Z,12.80
2022-10-11T08:46:15.414Z,14.18
2022-10-11T08:47:21.190Z,21.92
2022-10-11T08:48:33.242Z,16.33
2022-10-11T08:49:36.950Z,12.20
2022-10-11T08:50:39.972Z,13.65
2022-10-11T08:51:43.435Z,13.60
2022-10-11T08:52:53.228Z,14.32
2022-10-11T08:54:01.343Z,15.82
2022-10-11T08:55:16.546Z,15.85
2022-10-11T08:56:20.929Z,14.23
2022-10-11T08:57:28.171Z,14.23
2022-10-11T08:58:59.621Z,14.70
2022-10-11T09:00:12.974Z,13.68
2022-10-11T09:01:20.850Z,15.52
2022-10-11T09:03:02.929Z,13.15
2022-10-11T09:04:01.047Z,15.40
2022-10-11T09:05:09.407Z,22.73
2022-10-11T09:06:17.915Z,12.43
2022-10-11T09:07:59.777Z,15.40
2022-10-11T09:09:15.699Z,17.08
2022-10-11T09:10:37.811Z,13.75
2022-10-11T09:12:05.680Z,15.35
2022-10-11T09:13:31.920Z,13.85
2022-10-11T09:14:40.519Z,14.13
2022-10-11T09:15:47.045Z,18.25
2022-10-11T09:17:15.740Z,13.70
2022-10-11T09:18:41.347Z,17.75
2022-10-11T09:19:56.227Z,15.75
2022-10-11T09:21:49.607Z,16.83
2022-10-11T09:23:11.667Z,18.98
2022-10-11T09:24:38.992Z,18.08
2022-10-11T09:25:57.540Z,25.05
2022-10-11T09:27:15.013Z,15.60
2022-10-11T09:28:29.289Z,18.25
2022-10-11T09:29:57.015Z,15.63
2022-10-11T09:30:59.853Z,21.23
2022-10-11T09:32:02.921Z,19.23
2022-10-11T09:33:34.459Z,14.65
2022-10-11T09:34:42.431Z,15.90
2022-10-11T09:35:49.521Z,19.48
2022-10-11T09:37:16.594Z,17.83
2022-10-11T09:38:26.885Z,16.87
2022-10-11T09:39:36.609Z,13.40
2022-10-11T09:40:59.183Z,14.73
2022-10-11T09:42:12.561Z,15.50
2022-10-11T09:43:15.405Z,17.70
2022-10-11T09:44:46.003Z,17.92
2022-10-11T09:45:49.808Z,21.60
2022-10-11T09:46:54.939Z,17.67
2022-10-11T09:48:01.912Z,18.62
2022-10-11T09:49:09.581Z,16.05
2022-10-11T09:50:26.287Z,16.25
2022-10-11T09:51:29.946Z,17.05
2022-10-11T09:52:33.668Z,15.98
2022-10-11T09:54:03.009Z,16.90
2022-10-11T09:55:06.585Z,21.02
2022-10-11T09:56:09.855Z,15.30
2022-10-11T09:57:26.412Z,17.20
2022-10-11T09:58:35.512Z,15.32
2022-10-11T09:59:38.263Z,15.13
2022-10-11T10:00:40.898Z,20.02
2022-10-11T10:01:44.992Z,15.23
2022-10-11T10:02:50.940Z,14.73
2022-10-11T10:04:10.231Z,15.77
2022-10-11T10:05:16.463Z,17.70
2022-10-11T10:06:28.829Z,16.90
2022-10-11T10:07:34.035Z,18.15
2022-10-11T10:08:38.315Z,18.75
2022-10-11T10:09:40.869Z,15.73
2022-10-11T10:11:08.534Z,17.35
2022-10-11T10:12:13.424Z,14.98
2022-10-11T10:13:24.801Z,19.37
2022-10-11T10:14:30.440Z,18.42
2022-10-11T10:15:37.807Z,18.00
2022-10-11T10:16:40.443Z,16.35
2022-10-11T10:17:52.180Z,14.57
2022-10-11T10:19:19.263Z,19.85
2022-10-11T10:20:25.245Z,18.90
2022-10-11T10:21:31.825Z,15.70
2022-10-11T10:22:35.823Z,14.57
2022-10-11T10:23:38.746Z,21.75
2022-10-11T10:24:42.739Z,15.93
2022-10-11T10:25:51.195Z,16.37
2022-10-11T10:27:24.246Z,17.62
2022-10-11T10:28:27.878Z,20.50
2022-10-11T10:29:30.689Z,18.37
2022-10-11T10:30:35.683Z,19.83
2022-10-11T10:32:13.509Z,21.60
2022-10-11T10:33:17.389Z,16.35
2022-10-11T10:34:36.743Z,17.62
2022-10-11T10:35:45.623Z,14.55
2022-10-11T10:36:56.085Z,19.67
2022-10-11T10:38:01.301Z,17.73
2022-10-11T10:39:35.308Z,17.58
2022-10-11T10:40:47.587Z,22.83
2022-10-11T10:41:50.368Z,17.83
2022-10-11T10:42:53.106Z,17.55
2022-10-11T10:44:00.802Z,18.45
2022-10-11T10:45:12.172Z,19.20
2022-10-11T10:46:31.168Z,19.95
2022-10-11T10:47:45.531Z,22.67
2022-10-11T10:50:27.887Z,19.35
2022-10-11T10:51:39.208Z,15.57
2022-10-11T10:53:07.920Z,15.23
2022-10-11T10:54:44.348Z,17.58
2022-10-11T10:56:11.139Z,17.17
2022-10-11T10:57:23.934Z,19.55
2022-10-11T10:59:04.228Z,19.15
2022-10-11T11:00:15.127Z,19.25
2022-10-11T11:01:26.709Z,16.92
2022-10-11T11:02:51.908Z,18.50
2022-10-11T11:04:09.598Z,19.05
2022-10-11T11:05:32.368Z,21.45
2022-10-11T11:06:58.067Z,19.92
2022-10-11T11:08:00.763Z,18.85
2022-10-11T11:09:19.569Z,18.17
2022-10-11T11:10:42.752Z,17.17
2022-10-11T11:12:18.846Z,16.25
2022-10-11T11:13:33.289Z,18.20
2022-10-11T11:14:54.220Z,13.20
2022-10-11T11:16:29.144Z,18.15
2022-10-11T11:17:41.761Z,21.77
2022-10-11T11:19:05.847Z,18.42
2022-10-11T11:20:30.051Z,20.50
2022-10-11T11:21:53.436Z,17.83
2022-10-11T11:23:27.580Z,21.98
2022-10-11T11:24:49.073Z,14.90
2022-10-11T11:26:04.914Z,17.50
2022-10-11T11:27:27.714Z,19.77
2022-10-11T11:28:52.555Z,15.77
2022-10-11T11:29:58.113Z,16.85
2022-10-11T11:31:10.589Z,15.85
2022-10-11T11:32:24.299Z,16.23
2022-10-11T11:33:55.496Z,19.12
2022-10-11T11:35:03.938Z,16.70
2022-10-11T11:36:13.583Z,16.77
2022-10-11T11:37:45.908Z,16.85
2022-10-11T11:38:58.258Z,17.40
2022-10-11T11:40:15.688Z,16.62
2022-10-11T11:41:34.713Z,15.90
2022-10-11T11:42:46.473Z,19.42
2022-10-11T11:44:03.192Z,20.85
2022-10-11T11:45:17.868Z,16.45
2022-10-11T11:46:29.134Z,14.93
2022-10-11T11:47:37.940Z,17.83
2022-10-11T11:48:41.394Z,17.67
2022-10-11T11:49:55.251Z,20.10
2022-10-11T11:51:03.952Z,17.23
2022-10-11T11:52:11.967Z,16.17
2022-10-11T11:53:19.534Z,15.85
2022-10-11T11:54:29.736Z,19.62
2022-10-11T11:55:48.599Z,15.95
2022-10-11T11:57:02.635Z,19.17
2022-10-11T11:58:26.172Z,17.35
2022-10-11T11:59:37.170Z,17.95
2022-10-11T12:01:04.573Z,16.50
2022-10-11T12:02:35.295Z,18.40
2022-10-11T12:03:43.280Z,20.08
2022-10-11T12:04:48.875Z,22.40
2022-10-11T12:06:30.921Z,23.05
2022-10-11T12:07:49.038Z,16.02
2022-10-11T12:09:17.084Z,16.85
2022-10-11T12:10:34.222Z,20.98
2022-10-11T12:11:43.726Z,19.60
2022-10-11T12:12:46.410Z,18.73
2022-10-11T12:13:51.431Z,18.80
2022-10-11T12:15:04.543Z,20.88
2022-10-11T12:16:09.850Z,20.25
2022-10-11T12:17:16.297Z,19.98
2022-10-11T12:18:20.828Z,15.65
2022-10-11T12:19:23.544Z,18.45
2022-10-11T12:20:41.059Z,14.93
2022-10-11T12:21:44.599Z,16.30
2022-10-11T12:22:50.065Z,16.48
2022-10-11T12:23:55.113Z,16.90
2022-10-11T12:25:00.589Z,18.08
2022-10-11T12:26:28.120Z,20.75
2022-10-11T12:27:49.360Z,16.48
2022-10-11T12:29:17.212Z,16.15
2022-10-11T12:30:47.127Z,16.48
2022-10-11T12:32:11.471Z,14.70
2022-10-11T12:33:16.661Z,14.68
2022-10-11T12:34:49.084Z,17.17
2022-10-11T12:36:05.701Z,19.90
2022-10-11T12:37:20.124Z,20.27
2022-10-11T12:38:35.290Z,15.95
2022-10-11T12:39:49.328Z,19.37
2022-10-11T12:40:56.385Z,19.83
2022-10-11T12:42:20.503Z,18.20
2022-10-11T12:43:28.665Z,20.90
2022-10-11T12:44:31.348Z,16.23
2022-10-11T12:45:37.680Z,18.87
2022-10-11T12:47:04.642Z,17.92
2022-10-11T12:48:33.943Z,17.15
2022-10-11T12:50:16.870Z,17.40
2022-10-11T12:51:28.400Z,14.13
2022-10-11T12:52:36.578Z,20.83
2022-10-11T12:54:21.870Z,18.77
2022-10-11T12:55:46.137Z,17.90
2022-10-11T12:57:12.450Z,20.15
2022-10-11T12:58:50.103Z,16.77
2022-10-11T12:59:52.920Z,14.38
2022-10-11T13:00:56.391Z,16.58
2022-10-11T13:02:00.342Z,16.83
2022-10-11T13:03:06.176Z,18.87
2022-10-11T13:04:11.630Z,18.25
2022-10-11T13:05:31.553Z,15.90
2022-10-11T13:06:39.012Z,20.90
2022-10-11T13:07:43.331Z,17.70
2022-10-11T13:08:55.055Z,15.15
2022-10-11T13:11:10.079Z,25.88
2022-10-11T13:12:19.951Z,18.10
2022-10-11T13:13:27.036Z,14.98
2022-10-11T13:14:35.439Z,17.83
2022-10-11T13:15:38.073Z,18.62
2022-10-11T13:17:04.738Z,15.07
2022-10-11T13:18:15.650Z,16.60
2022-10-11T13:19:23.190Z,22.10
2022-10-11T13:20:29.836Z,19.83
2022-10-11T13:21:36.698Z,18.33
2022-10-11T13:22:40.852Z,20.08
2022-10-11T13:23:44.665Z,16.40
2022-10-11T13:24:47.457Z,15.88
2022-10-11T13:25:50.454Z,18.25
2022-10-11T13:26:57.250Z,16.58
2022-10-11T13:28:00.110Z,18.98
2022-10-11T13:29:02.844Z,17.02
2022-10-11T13:30:12.342Z,20.05
2022-10-11T13:31:15.076Z,15.80
2022-10-11T13:32:26.548Z,19.65
2022-10-11T13:33:38.434Z,19.23
2022-10-11T13:34:41.910Z,18.95
2022-10-11T13:35:44.855Z,19.80
2022-10-11T13:36:48.635Z,19.02
2022-10-11T13:37:53.008Z,18.95
2022-10-11T13:39:03.696Z,17.95
2022-10-11T13:40:06.916Z,20.17
2022-10-11T13:41:10.708Z,18.80
2022-10-11T13:42:16.318Z,18.55
2022-10-11T13:43:27.621Z,17.52
2022-10-11T13:44:33.541Z,16.15
2022-10-11T13:45:37.191Z,22.05
2022-10-11T13:46:41.807Z,16.25
2022-10-11T13:47:46.308Z,21.23
2022-10-11T13:49:27.680Z,15.60
2022-10-11T13:50:34.089Z,17.27
2022-10-11T13:51:37.790Z,20.70
2022-10-11T13:52:55.209Z,16.77
2022-10-11T13:54:13.154Z,21.02
2022-10-11T13:55:27.750Z,17.62
2022-10-11T13:56:36.627Z,20.17
2022-10-11T13:57:46.357Z,19.27
2022-10-11T13:58:49.063Z,18.17
2022-10-11T13:59:51.646Z,21.55
2022-10-11T14:01:00.580Z,22.87
2022-10-11T14:02:04.637Z,16.83
2022-10-11T14:03:19.387Z,16.20
2022-10-11T14:04:25.061Z,18.08
2022-10-11T14:05:39.489Z,21.08
2022-10-11T14:06:44.771Z,21.00
2022-10-11T14:07:48.212Z,16.83
2022-10-11T14:08:59.027Z,16.77
2022-10-11T14:10:02.511Z,19.27
2022-10-11T14:11:10.656Z,15.90
2022-10-11T14:12:32.769Z,19.65
2022-10-11T14:13:38.841Z,19.27
2022-10-11T14:14:43.041Z,20.37
2022-10-11T14:15:45.747Z,17.33
2022-10-11T14:16:59.185Z,18.95
2022-10-11T14:18:23.074Z,15.50
2022-10-11T14:19:25.734Z,16.27
2022-10-11T14:20:40.271Z,18.92
2022-10-11T14:21:45.984Z,18.37
2022-10-11T14:22:52.742Z,19.20
2022-10-11T14:24:01.443Z,16.45
2022-10-11T14:25:04.469Z,15.40
2022-10-11T14:26:13.053Z,17.17
2022-10-11T14:27:22.703Z,16.00
2022-10-11T14:28:25.332Z,18.25
2022-10-11T14:29:39.743Z,17.48
2022-10-11T14:30:46.563Z,17.60
2022-10-11T14:31:49.855Z,16.52
2022-10-11T14:32:54.762Z,15.18
2022-10-11T14:33:58.193Z,15.93
2022-10-11T14:35:01.662Z,16.75
2022-10-11T14:36:04.949Z,15.95
2022-10-11T14:37:08.063Z,17.52
2022-10-11T14:38:12.100Z,17.75
2022-10-11T14:39:17.737Z,19.50
2022-10-11T14:40:23.961Z,19.85
2022-10-11T14:41:29.693Z,22.48
2022-10-11T14:42:32.261Z,20.88
2022-10-11T14:43:36.144Z,16.12
2022-10-11T14:44:38.883Z,16.05
2022-10-11T14:45:41.504Z,18.87
2022-10-11T14:46:45.136Z,20.40
2022-10-11T14:47:48.571Z,20.27
2022-10-11T14:48:56.040Z,21.02
2022-10-11T14:50:02.818Z,17.80
2022-10-11T14:51:06.609Z,17.40
2022-10-11T14:52:13.244Z,19.02